Brownsville, OH (43721)

10:47 PM EDT on September 17, 2014 (GMT -0400)
Heath | Change Station
CLOSE
Current Station
Personal Weather Station
Location: Heath, OH
Elevation: 1063 ft
Nearby Weather Stations

Elev 1063 ft 39.98 °N, 82.34 °W | Updated 1 minute ago

Clear
Clear
51.6 °F
Feels Like 51.6 °F
N
0.0
Wind Variable Wind from SW

Today
High -- | Low -- °F
--% Chance of Precip.
Yesterday
High -- | Low -- °F
Precip. -- in
7:11 AM 7:34 PM
Waning Crescent, 31% visible
Pressure 29.99 in
Visibility 4.0 miles
Clouds Clear
Dew Point 51 °F
Humidity 98%
Rainfall 0.00 in
Snow Depth Not available.
UV 0 out of 12
Pollen 4.60 out of 12
Ozone Good
PM2.5 Moderate
Flu Activity Not available.
METAR KVTA 180154Z AUTO 00000KT 4SM BR CLR 09/08 A2999 RMK AO2 SLP155 T00940083

More Conditions Fewer Conditions

Pressure 29.99 in
Visibility 4.0 miles
Clouds Clear
Dew Point 51 °F
Humidity 98%
Rainfall 0.00 in
Snow Depth Not available.
UV 0 out of 12
Pollen 4.60 out of 12
Ozone Good
PM2.5 Moderate
Flu Activity Not available.
METAR KVTA 180154Z AUTO 00000KT 4SM BR CLR 09/08 A2999 RMK AO2 SLP155 T00940083

More Conditions Fewer Conditions

10-Day Weather Forecast

Almanac

Astronomy

Sep. 17, 2014 Rise Set
Actual Time 7:11 AM EDT 7:34 PM EDT
Civil Twilight 6:44 AM EDT 8:01 PM EDT
Nautical Twilight 6:12 AM EDT 8:33 PM EDT
Astronomical Twilight 5:40 AM EDT 9:05 PM EDT
Moon 1:10 AM EDT (9/17) 3:43 PM EDT (9/17)
Length of Visible Light 13h 16m
Length of Day
12h 22m
Tomorrow will be 2m 36s shorter.
Waning Crescent, 31% of the Moon is Illuminated
Today
Waning Crescent
Sep 24
New
Oct 1
First Quarter
Oct 8
Full
Oct 15
Last Quarter

Today's Extremes

State Highs State Lows

Community

WunderPhotos

Upload Photos

1,754,268 photos uploaded!

Nearby

Air Quality

  Air Quality AQ Index Pollutant
Yesterday Good
PM2.5
Yesterday Good
OZONE
Current Moderate
PM2.5
Current Good
OZONE
Wednesday Good
OZONE
Wednesday Good
PM2.5
Thursday Good
OZONE
Thursday Good
PM2.5
Friday Moderate
PM2.5
Friday Moderate
OZONE
Saturday Moderate
OZONE
Saturday Moderate
PM2.5
Sunday Good
OZONE
Sunday Good
PM2.5
Monday Good
OZONE
Monday Good
PM2.5

Snow Depth

Station Depth Elevation
No new snow has been reported.

Earthquake Activity

City Distance Mag. Time & Date
No recent earthquake activity has been reported nearby.
Minimum magnitude displayed is 2.5.

Coastal Water Temperatures

Place Temperature
No Stations Reporting

Nearby Weather Stations